createdAt,value
2023-02-16T00:01:25.462Z,45.40
2023-02-16T00:03:55.097Z,40.47
2023-02-16T00:06:23.930Z,38.23
2023-02-16T00:08:53.796Z,48.83
2023-02-16T00:11:43.051Z,44.00
2023-02-16T00:14:13.556Z,41.37
2023-02-16T00:16:42.104Z,43.47
2023-02-16T00:19:19.001Z,36.20
2023-02-16T00:21:47.507Z,44.00
2023-02-16T00:24:16.162Z,42.40
2023-02-16T00:26:45.148Z,38.47
2023-02-16T00:29:20.575Z,37.73
2023-02-16T00:31:49.105Z,45.27
2023-02-16T00:34:27.988Z,53.17
2023-02-16T00:36:57.704Z,47.90
2023-02-16T00:39:26.932Z,54.97
2023-02-16T00:41:59.112Z,52.47
2023-02-16T00:44:34.393Z,60.13
2023-02-16T00:47:11.851Z,63.33
2023-02-16T00:49:40.188Z,53.87
2023-02-16T00:52:34.285Z,55.23
2023-02-16T00:55:04.917Z,54.63
2023-02-16T00:57:37.047Z,55.10
2023-02-16T01:00:16.415Z,52.30
2023-02-16T01:02:45.681Z,52.77
2023-02-16T01:05:14.527Z,47.67
2023-02-16T01:08:00.454Z,49.43
2023-02-16T01:10:58.963Z,40.90
2023-02-16T01:13:29.830Z,45.47
2023-02-16T01:15:59.820Z,46.97
2023-02-16T01:18:28.597Z,40.47
2023-02-16T01:20:56.929Z,46.93
2023-02-16T01:23:25.312Z,49.93
2023-02-16T01:25:53.545Z,46.17
2023-02-16T01:28:24.128Z,45.70
2023-02-16T01:30:54.097Z,50.27
2023-02-16T01:33:23.883Z,47.47
2023-02-16T01:35:53.637Z,44.63
2023-02-16T01:38:23.880Z,42.43
2023-02-16T01:41:01.275Z,45.63
2023-02-16T01:43:35.572Z,46.90
2023-02-16T01:46:09.347Z,45.97
2023-02-16T01:48:39.403Z,43.47
2023-02-16T01:51:15.425Z,49.60
2023-02-16T01:53:47.270Z,47.13
2023-02-16T01:56:22.721Z,45.93
2023-02-16T01:58:55.627Z,40.47
2023-02-16T02:01:49.048Z,51.93
2023-02-16T02:04:48.808Z,47.33
2023-02-16T02:07:26.744Z,42.10
2023-02-16T02:10:03.200Z,52.70
2023-02-16T02:12:39.787Z,44.23
2023-02-16T02:15:09.293Z,45.77
2023-02-16T02:17:38.363Z,43.60
2023-02-16T02:20:16.491Z,53.90
2023-02-16T02:23:34.010Z,54.23
2023-02-16T02:26:45.366Z,52.13
2023-02-16T02:29:28.849Z,60.80
2023-02-16T02:32:06.599Z,67.33
2023-02-16T02:34:45.517Z,50.40
2023-02-16T02:37:22.524Z,49.13
2023-02-16T02:39:59.774Z,46.17
2023-02-16T02:42:35.120Z,55.23
2023-02-16T02:45:09.661Z,49.10
2023-02-16T02:47:42.412Z,54.87
2023-02-16T02:51:03.108Z,49.80
2023-02-16T02:53:32.099Z,46.60
2023-02-16T02:56:19.704Z,49.70
2023-02-16T02:59:07.140Z,46.60
2023-02-16T03:01:42.183Z,48.10
2023-02-16T03:04:12.501Z,50.70
2023-02-16T03:06:44.794Z,44.87
2023-02-16T03:09:17.473Z,50.47
2023-02-16T03:12:07.112Z,55.40
2023-02-16T03:14:37.774Z,57.17
2023-02-16T03:17:28.802Z,48.33
2023-02-16T03:20:15.324Z,51.43
2023-02-16T03:23:01.387Z,57.63
2023-02-16T03:25:50.792Z,50.43
2023-02-16T03:28:38.704Z,52.47
2023-02-16T03:31:09.407Z,54.67
2023-02-16T03:33:40.398Z,49.60
2023-02-16T03:36:09.564Z,52.43
2023-02-16T03:38:39.317Z,49.03
2023-02-16T03:41:08.074Z,54.30
2023-02-16T03:43:36.431Z,51.53
2023-02-16T03:46:04.865Z,50.77
2023-02-16T03:48:33.214Z,47.20
2023-02-16T03:51:03.282Z,50.80
2023-02-16T03:53:31.719Z,48.07
2023-02-16T03:56:00.051Z,50.63
2023-02-16T03:58:28.442Z,48.27
2023-02-16T04:00:58.959Z,47.00
2023-02-16T04:03:27.385Z,47.10
2023-02-16T04:05:56.447Z,45.63
2023-02-16T04:08:26.121Z,45.60
2023-02-16T04:10:56.942Z,42.00
2023-02-16T04:13:24.651Z,42.00
2023-02-16T04:15:53.330Z,48.83
2023-02-16T04:18:21.662Z,40.40
2023-02-16T04:20:50.004Z,40.23
2023-02-16T04:23:18.313Z,47.47
2023-02-16T04:25:48.106Z,43.23
2023-02-16T04:28:16.396Z,44.73
2023-02-16T04:30:44.769Z,39.90
2023-02-16T04:33:13.197Z,41.60
2023-02-16T04:35:41.512Z,37.00
2023-02-16T04:38:09.831Z,39.37
2023-02-16T04:40:38.128Z,41.87
2023-02-16T04:43:07.798Z,44.63
2023-02-16T04:45:36.058Z,41.20
2023-02-16T04:48:04.400Z,47.50
2023-02-16T04:50:32.840Z,42.03
2023-02-16T04:53:01.143Z,40.47
2023-02-16T04:55:29.901Z,41.70
2023-02-16T04:57:58.217Z,49.63
2023-02-16T05:00:28.135Z,44.73
2023-02-16T05:02:56.453Z,45.07
2023-02-16T05:05:24.884Z,42.33
2023-02-16T05:07:53.153Z,46.13
2023-02-16T05:10:24.083Z,42.13
2023-02-16T05:13:09.792Z,42.57
2023-02-16T05:15:39.764Z,47.63
2023-02-16T05:18:08.126Z,55.40
2023-02-16T05:20:53.512Z,51.20
2023-02-16T05:23:21.941Z,46.50
2023-02-16T05:25:50.303Z,53.47
2023-02-16T05:28:18.759Z,49.13
2023-02-16T05:30:48.634Z,48.33
2023-02-16T05:33:16.977Z,43.40
2023-02-16T05:35:45.303Z,54.23
2023-02-16T05:38:13.538Z,52.87
2023-02-16T05:40:41.907Z,47.37
2023-02-16T05:43:10.225Z,49.97
2023-02-16T05:45:40.281Z,53.57
2023-02-16T05:48:09.970Z,51.77
2023-02-16T05:50:38.244Z,46.87
2023-02-16T05:53:06.523Z,50.50
2023-02-16T05:55:34.976Z,51.27
2023-02-16T05:58:03.326Z,46.67
2023-02-16T06:00:33.757Z,53.23
2023-02-16T06:03:02.132Z,47.00
2023-02-16T06:05:32.044Z,53.30
2023-02-16T06:08:00.355Z,56.35
2023-02-16T06:10:28.730Z,64.40
2023-02-16T06:12:57.037Z,62.33
2023-02-16T06:15:25.362Z,66.30
2023-02-16T06:17:53.623Z,62.07
2023-02-16T06:20:22.094Z,61.77
2023-02-16T06:22:51.806Z,62.03
2023-02-16T06:25:20.853Z,55.93
2023-02-16T06:27:50.102Z,59.93
2023-02-16T06:30:20.826Z,62.57
2023-02-16T06:32:49.117Z,49.23
2023-02-16T06:35:17.660Z,63.87
2023-02-16T06:37:46.144Z,65.43
2023-02-16T06:40:17.636Z,57.83
2023-02-16T06:42:46.135Z,62.30
2023-02-16T06:45:14.528Z,67.93
2023-02-16T06:47:42.809Z,60.47
2023-02-16T06:50:13.726Z,65.00
2023-02-16T06:52:42.175Z,65.50
2023-02-16T06:55:10.682Z,58.67
2023-02-16T06:57:40.954Z,51.90
2023-02-16T07:00:10.393Z,50.50
2023-02-16T07:02:38.708Z,50.37
2023-02-16T07:05:07.212Z,51.63
2023-02-16T07:07:35.548Z,50.40
2023-02-16T07:10:03.966Z,44.83
2023-02-16T07:12:32.379Z,38.47
2023-02-16T07:15:02.102Z,40.97
2023-02-16T07:17:30.359Z,40.20
2023-02-16T07:19:59.987Z,38.90
2023-02-16T07:22:30.998Z,41.33
2023-02-16T07:25:00.772Z,40.30
2023-02-16T07:27:29.341Z,41.55
2023-02-16T07:29:57.629Z,36.83
2023-02-16T07:32:27.843Z,42.83
2023-02-16T07:34:56.135Z,38.90
2023-02-16T07:37:24.521Z,42.47
2023-02-16T07:39:53.137Z,44.97
2023-02-16T07:42:21.884Z,41.00
2023-02-16T07:44:50.196Z,43.17
2023-02-16T07:47:18.924Z,53.40
2023-02-16T07:49:48.704Z,51.93
2023-02-16T07:52:17.026Z,58.70
2023-02-16T07:54:46.584Z,57.97
2023-02-16T07:57:14.979Z,57.97
2023-02-16T07:59:43.382Z,52.13
2023-02-16T08:02:17.984Z,57.97
2023-02-16T08:04:49.846Z,55.93
2023-02-16T08:07:19.832Z,52.33
2023-02-16T08:09:48.408Z,58.13
2023-02-16T08:12:17.784Z,61.90
2023-02-16T08:14:47.230Z,53.23
2023-02-16T08:17:15.898Z,61.00
2023-02-16T08:19:44.222Z,63.07
2023-02-16T08:22:13.300Z,57.83
2023-02-16T08:24:43.559Z,60.07
2023-02-16T08:27:11.980Z,54.13
2023-02-16T08:29:41.626Z,56.17
2023-02-16T08:32:13.254Z,50.00
2023-02-16T08:34:43.514Z,49.80
2023-02-16T08:37:14.607Z,55.13
2023-02-16T08:39:48.179Z,50.17
2023-02-16T08:42:25.117Z,53.53
2023-02-16T08:45:08.087Z,51.70
2023-02-16T08:47:47.084Z,37.63
2023-02-16T08:53:52.449Z,45.57
2023-02-16T08:56:22.148Z,45.00
2023-02-16T08:58:50.477Z,46.13
2023-02-16T09:01:19.225Z,47.67
2023-02-16T09:03:48.538Z,42.87
2023-02-16T09:06:20.545Z,40.17
2023-02-16T09:08:53.012Z,46.20
2023-02-16T09:11:24.044Z,40.83
2023-02-16T09:13:53.343Z,39.70
2023-02-16T09:16:23.735Z,40.57
2023-02-16T09:18:53.368Z,41.33
2023-02-16T09:21:25.536Z,41.50
2023-02-16T09:23:56.492Z,36.87
2023-02-16T09:26:27.985Z,47.37
2023-02-16T09:28:58.806Z,39.83
2023-02-16T09:31:31.143Z,36.13
2023-02-16T09:34:02.877Z,39.03
2023-02-16T09:36:32.042Z,41.65
2023-02-16T09:39:00.859Z,39.50
2023-02-16T09:41:40.365Z,41.77
2023-02-16T09:44:17.978Z,37.77
2023-02-16T09:46:47.685Z,35.90
2023-02-16T09:49:26.093Z,39.90
2023-02-16T09:52:03.827Z,39.13
2023-02-16T09:54:42.259Z,41.07
2023-02-16T09:57:20.894Z,31.63
2023-02-16T09:59:58.221Z,33.63
2023-02-16T10:02:42.095Z,36.60
2023-02-16T10:05:24.526Z,38.60
2023-02-16T10:08:00.071Z,35.50
2023-02-16T10:10:35.361Z,37.53
2023-02-16T10:13:12.970Z,33.20
2023-02-16T10:15:42.877Z,36.27
2023-02-16T10:18:22.156Z,37.07
2023-02-16T10:20:53.593Z,36.30
2023-02-16T10:23:34.160Z,34.60
2023-02-16T10:26:12.594Z,38.47
2023-02-16T10:28:48.042Z,37.27
2023-02-16T10:31:23.669Z,36.87
2023-02-16T10:34:14.580Z,37.30
2023-02-16T10:37:01.725Z,34.57
2023-02-16T10:39:40.848Z,34.00
2023-02-16T10:42:18.861Z,43.53
2023-02-16T10:44:53.382Z,37.73
2023-02-16T10:47:31.280Z,34.63
2023-02-16T10:49:59.699Z,41.67
2023-02-16T10:52:35.052Z,42.17
2023-02-16T10:55:03.588Z,34.80
2023-02-16T10:57:33.672Z,35.37
2023-02-16T11:00:08.227Z,38.57
2023-02-16T11:02:39.644Z,37.17
2023-02-16T11:05:36.172Z,38.47
2023-02-16T11:08:06.450Z,37.67
2023-02-16T11:10:46.215Z,39.50
2023-02-16T11:13:29.275Z,35.53
2023-02-16T11:16:02.681Z,39.03
2023-02-16T11:18:35.037Z,34.53
2023-02-16T11:21:04.468Z,36.37
2023-02-16T11:23:34.795Z,36.80
2023-02-16T11:26:06.014Z,34.40
2023-02-16T11:28:37.963Z,47.13
2023-02-16T11:31:19.696Z,38.17
2023-02-16T11:34:03.301Z,36.87
2023-02-16T11:36:35.721Z,39.33
2023-02-16T11:39:07.746Z,36.90
2023-02-16T11:41:36.789Z,40.73
2023-02-16T11:44:05.968Z,41.80
2023-02-16T11:46:42.459Z,39.53
2023-02-16T11:49:29.723Z,40.20
2023-02-16T11:51:58.547Z,36.13
2023-02-16T11:54:27.647Z,39.73
2023-02-16T11:57:05.303Z,34.83
2023-02-16T11:59:38.865Z,35.03
2023-02-16T12:02:32.227Z,36.57
2023-02-16T12:05:16.242Z,42.50
2023-02-16T12:07:51.441Z,41.73
2023-02-16T12:10:27.026Z,39.60
2023-02-16T12:13:03.256Z,36.13
2023-02-16T12:15:40.175Z,33.17
2023-02-16T12:18:27.078Z,33.33
2023-02-16T12:21:01.131Z,35.03
2023-02-16T12:23:41.042Z,30.57
2023-02-16T12:26:26.819Z,31.77
2023-02-16T12:29:03.747Z,31.50
2023-02-16T12:31:49.278Z,33.83
2023-02-16T12:34:32.027Z,31.17
2023-02-16T12:37:08.120Z,33.67
2023-02-16T12:39:46.278Z,32.90
2023-02-16T12:42:38.973Z,33.80
2023-02-16T12:45:14.293Z,35.17
2023-02-16T12:47:46.653Z,31.93
2023-02-16T12:50:22.594Z,33.33
2023-02-16T12:52:55.910Z,33.47
2023-02-16T12:55:29.583Z,32.50
2023-02-16T12:58:05.375Z,29.30
2023-02-16T13:00:46.619Z,31.13
2023-02-16T13:03:34.759Z,29.17
2023-02-16T13:06:14.920Z,24.77
2023-02-16T13:08:49.588Z,26.13
2023-02-16T13:11:22.641Z,31.07
2023-02-16T13:13:53.510Z,25.60
2023-02-16T13:16:30.903Z,28.57
2023-02-16T13:18:59.896Z,25.93
2023-02-16T13:22:01.511Z,24.73
2023-02-16T13:24:40.518Z,23.07
2023-02-16T13:27:19.654Z,24.37
2023-02-16T13:30:01.430Z,25.10
2023-02-16T13:32:50.134Z,23.02
2023-02-16T13:35:44.324Z,29.67
2023-02-16T13:38:35.698Z,22.42
2023-02-16T13:41:32.406Z,25.65
2023-02-16T13:44:04.885Z,24.10
2023-02-16T13:46:37.611Z,26.90
2023-02-16T13:49:32.369Z,30.20
2023-02-16T13:52:01.408Z,24.48
2023-02-16T13:54:33.193Z,26.27
2023-02-16T13:57:04.237Z,27.08
2023-02-16T14:00:29.162Z,24.90
2023-02-16T14:02:59.784Z,26.75
2023-02-16T14:05:31.614Z,25.38
2023-02-16T14:08:21.485Z,28.00
2023-02-16T14:11:04.005Z,29.77
2023-02-16T14:13:35.240Z,29.13
2023-02-16T14:16:09.589Z,29.33
2023-02-16T14:18:44.320Z,29.25
2023-02-16T14:21:22.286Z,26.95
2023-02-16T14:23:56.394Z,25.05
2023-02-16T14:26:27.332Z,24.35
2023-02-16T14:29:21.878Z,23.70
2023-02-16T14:32:11.904Z,27.92
2023-02-16T14:34:44.089Z,25.02
2023-02-16T14:37:53.127Z,33.10
2023-02-16T14:40:24.191Z,31.33
2023-02-16T14:42:59.439Z,34.08
2023-02-16T14:46:02.203Z,31.00
2023-02-16T14:48:53.055Z,31.80
2023-02-16T14:51:52.513Z,28.40
2023-02-16T14:54:43.746Z,30.90
2023-02-16T14:57:37.241Z,55.80
2023-02-16T15:00:19.611Z,28.13
2023-02-16T15:02:58.118Z,30.80
2023-02-16T15:05:41.930Z,29.93
2023-02-16T15:08:48.849Z,32.83
2023-02-16T15:11:23.169Z,34.43
2023-02-16T15:14:10.428Z,34.37
2023-02-16T15:19:51.464Z,33.13
2023-02-16T15:22:22.120Z,32.47
2023-02-16T15:25:02.243Z,30.70
2023-02-16T15:27:33.101Z,32.90
2023-02-16T15:30:24.129Z,34.70
2023-02-16T15:32:56.267Z,39.00
2023-02-16T15:35:31.875Z,35.70
2023-02-16T15:38:20.898Z,37.37
2023-02-16T15:40:54.462Z,31.43
2023-02-16T15:43:37.684Z,32.57
2023-02-16T15:46:26.899Z,33.13
2023-02-16T15:49:07.316Z,36.47
2023-02-16T15:52:00.895Z,35.43
2023-02-16T15:54:43.547Z,32.57
2023-02-16T15:57:27.886Z,37.63
2023-02-16T16:00:20.723Z,35.57
2023-02-16T16:03:11.863Z,39.97
2023-02-16T16:05:44.613Z,38.70
2023-02-16T16:08:22.043Z,48.47
2023-02-16T16:10:51.976Z,51.53
2023-02-16T16:13:28.825Z,45.00
2023-02-16T16:16:10.166Z,38.03
2023-02-16T16:18:46.226Z,41.37
2023-02-16T16:21:20.591Z,38.37
2023-02-16T16:24:03.623Z,91.10
2023-02-16T16:26:35.301Z,57.13
2023-02-16T16:29:03.746Z,48.47
2023-02-16T16:31:53.916Z,82.53
2023-02-16T16:34:34.121Z,44.20
2023-02-16T16:37:06.971Z,38.83
2023-02-16T16:39:37.972Z,37.97
2023-02-16T16:42:24.304Z,37.67
2023-02-16T16:44:59.182Z,40.93
2023-02-16T16:47:31.675Z,43.77
2023-02-16T16:50:02.115Z,41.77
2023-02-16T16:52:34.552Z,38.53
2023-02-16T16:55:03.317Z,38.23
2023-02-16T16:57:31.687Z,41.53
2023-02-16T16:59:59.973Z,39.83
2023-02-16T17:02:28.339Z,41.97
2023-02-16T17:04:56.646Z,42.63
2023-02-16T17:07:25.220Z,39.93
2023-02-16T17:09:55.680Z,47.03
2023-02-16T17:12:25.790Z,40.30
2023-02-16T17:14:54.627Z,43.30
2023-02-16T17:17:22.946Z,39.07
2023-02-16T17:19:51.254Z,43.63
2023-02-16T17:22:21.784Z,45.83
2023-02-16T17:24:50.142Z,40.80
2023-02-16T17:27:19.938Z,46.00
2023-02-16T17:29:48.288Z,43.17
2023-02-16T17:32:16.700Z,46.93
2023-02-16T17:34:45.135Z,43.47
2023-02-16T17:37:13.749Z,39.13
2023-02-16T17:39:42.141Z,46.83
2023-02-16T17:42:12.856Z,44.60
2023-02-16T17:44:42.548Z,45.77
2023-02-16T17:47:15.644Z,48.57
2023-02-16T17:49:43.917Z,47.03
2023-02-16T17:52:12.853Z,46.83
2023-02-16T17:54:41.224Z,43.67
2023-02-16T17:57:11.177Z,50.13
2023-02-16T17:59:41.316Z,47.83
2023-02-16T18:02:12.712Z,42.20
2023-02-16T18:04:41.933Z,43.20
2023-02-16T18:07:13.921Z,42.47
2023-02-16T18:09:42.648Z,42.63
2023-02-16T18:12:10.983Z,40.50
2023-02-16T18:14:39.453Z,45.30
2023-02-16T18:17:08.052Z,44.67
2023-02-16T18:19:37.801Z,54.53
2023-02-16T18:22:06.435Z,47.23
2023-02-16T18:24:34.762Z,44.40
2023-02-16T18:27:03.101Z,49.57
2023-02-16T18:29:31.514Z,48.53
2023-02-16T18:31:59.845Z,50.53
2023-02-16T18:34:28.326Z,49.07
2023-02-16T18:36:58.093Z,50.80
2023-02-16T18:39:26.446Z,52.23
2023-02-16T18:41:54.746Z,48.80
2023-02-16T18:44:23.092Z,53.17
2023-02-16T18:46:51.428Z,48.77
2023-02-16T18:49:19.789Z,58.83
2023-02-16T18:51:48.203Z,50.57
2023-02-16T18:54:17.917Z,52.73
2023-02-16T18:56:47.566Z,48.10
2023-02-16T18:59:15.898Z,51.03
2023-02-16T19:01:44.386Z,51.57
2023-02-16T19:04:13.176Z,55.07
2023-02-16T19:06:41.506Z,56.08
2023-02-16T19:09:09.792Z,52.97
2023-02-16T19:11:39.709Z,55.10
2023-02-16T19:14:09.133Z,53.63
2023-02-16T19:16:37.770Z,58.53
2023-02-16T19:19:06.480Z,51.77
2023-02-16T19:21:34.985Z,52.60
2023-02-16T19:24:03.313Z,50.43
2023-02-16T19:26:31.744Z,52.07
2023-02-16T19:29:01.490Z,54.40
2023-02-16T19:31:31.732Z,46.60
2023-02-16T19:34:01.347Z,46.63
2023-02-16T19:36:32.097Z,45.40
2023-02-16T19:39:00.861Z,50.20
2023-02-16T19:41:31.800Z,46.30
2023-02-16T19:44:04.896Z,39.23
2023-02-16T19:46:34.221Z,44.87
2023-02-16T19:49:02.901Z,44.87
2023-02-16T19:51:31.534Z,45.40
2023-02-16T19:54:00.858Z,41.00
2023-02-16T19:56:29.596Z,44.73
2023-02-16T19:58:59.447Z,45.00
2023-02-16T20:01:29.952Z,43.97
2023-02-16T20:03:59.071Z,39.77
2023-02-16T20:06:30.594Z,40.90
2023-02-16T20:09:00.269Z,43.37
2023-02-16T20:11:30.613Z,44.47
2023-02-16T20:14:02.003Z,42.33
2023-02-16T20:16:31.759Z,40.50
2023-02-16T20:19:00.645Z,43.10
2023-02-16T20:21:30.593Z,42.27
2023-02-16T20:24:00.780Z,43.20
2023-02-16T20:26:33.604Z,41.70
2023-02-16T20:29:02.904Z,44.50
2023-02-16T20:31:36.128Z,47.67
2023-02-16T20:34:05.585Z,47.10
2023-02-16T20:36:34.877Z,42.43
2023-02-16T20:39:03.255Z,43.20
2023-02-16T20:41:31.619Z,39.77
2023-02-16T20:44:00.103Z,41.33
2023-02-16T20:46:28.405Z,40.13
2023-02-16T20:48:58.203Z,41.07
2023-02-16T20:51:26.609Z,47.27
2023-02-16T20:53:54.890Z,44.53
2023-02-16T20:56:25.515Z,37.47
2023-02-16T20:58:55.852Z,41.83
2023-02-16T21:01:27.149Z,50.97
2023-02-16T21:03:58.141Z,42.50
2023-02-16T21:06:27.050Z,45.20
2023-02-16T21:08:56.015Z,49.15
2023-02-16T21:11:25.584Z,42.43
2023-02-16T21:13:54.239Z,39.33
2023-02-16T21:16:23.521Z,39.33
2023-02-16T21:18:52.638Z,41.47
2023-02-16T21:21:22.904Z,38.47
2023-02-16T21:23:52.887Z,40.10
2023-02-16T21:26:23.265Z,35.57
2023-02-16T21:28:51.987Z,44.70
2023-02-16T21:31:23.943Z,40.60
2023-02-16T21:33:53.188Z,37.60
2023-02-16T21:36:25.065Z,45.07
2023-02-16T21:38:53.962Z,38.97
2023-02-16T21:41:26.220Z,41.93
2023-02-16T21:43:56.384Z,41.17
2023-02-16T21:46:24.732Z,39.43
2023-02-16T21:48:52.017Z,42.60
2023-02-16T21:51:24.927Z,37.23
2023-02-16T21:53:54.016Z,38.90
2023-02-16T21:56:30.532Z,44.00
2023-02-16T21:58:59.528Z,39.13
2023-02-16T22:01:29.987Z,41.60
2023-02-16T22:04:00.417Z,46.47
2023-02-16T22:06:33.337Z,38.50
2023-02-16T22:09:02.509Z,40.87
2023-02-16T22:11:30.923Z,38.03
2023-02-16T22:14:01.131Z,46.43
2023-02-16T22:16:31.586Z,39.07
2023-02-16T22:19:01.072Z,40.67
2023-02-16T22:21:31.670Z,38.03
2023-02-16T22:24:00.819Z,41.63
2023-02-16T22:26:31.230Z,39.97
2023-02-16T22:29:00.236Z,43.77
2023-02-16T22:31:29.264Z,40.73
2023-02-16T22:33:58.098Z,41.23
2023-02-16T22:36:27.069Z,43.53
2023-02-16T22:38:56.964Z,41.60
2023-02-16T22:41:26.136Z,43.07
2023-02-16T22:43:55.198Z,36.03
2023-02-16T22:46:24.730Z,39.00
2023-02-16T22:48:53.460Z,38.13
2023-02-16T22:51:22.954Z,43.13
2023-02-16T22:53:51.245Z,38.57
2023-02-16T22:56:21.351Z,36.73
2023-02-16T22:58:49.982Z,39.33
2023-02-16T23:01:20.455Z,39.20
2023-02-16T23:03:49.831Z,39.10
2023-02-16T23:06:21.568Z,47.50
2023-02-16T23:08:53.963Z,41.03
2023-02-16T23:11:24.314Z,40.43
2023-02-16T23:13:52.865Z,39.40
2023-02-16T23:16:23.213Z,40.73
2023-02-16T23:18:51.873Z,43.30
2023-02-16T23:21:22.409Z,45.37
2023-02-16T23:23:52.024Z,46.57
2023-02-16T23:26:21.945Z,40.87
2023-02-16T23:28:54.220Z,45.23
2023-02-16T23:31:23.132Z,40.07
2023-02-16T23:33:52.188Z,40.33
2023-02-16T23:36:20.527Z,43.27
2023-02-16T23:38:48.832Z,43.10
2023-02-16T23:41:17.551Z,41.53
2023-02-16T23:43:45.857Z,38.80
2023-02-16T23:46:15.686Z,42.50
2023-02-16T23:48:44.048Z,43.10
2023-02-16T23:51:12.445Z,39.07
2023-02-16T23:53:40.943Z,46.30
2023-02-16T23:56:12.942Z,40.60
2023-02-16T23:58:42.695Z,39.70
